createdAt,value
2017-09-07T00:00:37.384Z,0
2017-09-07T00:01:17.849Z,0
2017-09-07T00:01:58.302Z,0
2017-09-07T00:02:38.771Z,0
2017-09-07T00:03:19.224Z,0
2017-09-07T00:03:59.681Z,0
2017-09-07T00:04:40.162Z,0
2017-09-07T00:05:20.613Z,0
2017-09-07T00:06:01.074Z,0
2017-09-07T00:06:41.511Z,0
2017-09-07T00:07:21.952Z,0
2017-09-07T00:08:02.399Z,0
2017-09-07T00:08:42.842Z,0
2017-09-07T00:09:23.290Z,0
2017-09-07T00:10:03.750Z,0
2017-09-07T00:10:44.201Z,0
2017-09-07T00:11:24.654Z,0
2017-09-07T00:12:05.102Z,0
2017-09-07T00:12:45.561Z,0
2017-09-07T00:13:26.021Z,0
2017-09-07T00:14:06.552Z,0
2017-09-07T00:14:47.007Z,0
2017-09-07T00:15:27.466Z,0
2017-09-07T00:16:07.916Z,0
2017-09-07T00:16:48.360Z,0
2017-09-07T00:17:28.821Z,0
2017-09-07T00:18:09.279Z,0
2017-09-07T00:18:49.746Z,0
2017-09-07T00:19:30.191Z,0
2017-09-07T00:20:10.653Z,0
2017-09-07T00:20:51.104Z,0
2017-09-07T00:21:31.563Z,0
2017-09-07T00:22:12.007Z,0
2017-09-07T00:22:52.465Z,0
2017-09-07T00:23:32.924Z,0
2017-09-07T00:24:13.374Z,0
2017-09-07T00:24:53.829Z,0
2017-09-07T00:25:34.294Z,0
2017-09-07T00:26:14.756Z,0
2017-09-07T00:26:55.208Z,0
2017-09-07T00:27:35.664Z,0
2017-09-07T00:28:16.180Z,0
2017-09-07T00:28:56.631Z,0
2017-09-07T00:29:37.089Z,0
2017-09-07T00:30:17.538Z,0
2017-09-07T00:30:57.998Z,0
2017-09-07T00:31:38.451Z,0
2017-09-07T00:32:18.907Z,0
2017-09-07T00:32:59.365Z,0
2017-09-07T00:33:39.811Z,0
2017-09-07T00:34:20.261Z,0
2017-09-07T00:35:00.713Z,0
2017-09-07T00:35:41.169Z,0
2017-09-07T00:36:21.629Z,0
2017-09-07T00:37:02.078Z,0
2017-09-07T00:37:42.538Z,0
2017-09-07T00:38:22.990Z,0
2017-09-07T00:39:03.441Z,0
2017-09-07T00:39:43.892Z,0
2017-09-07T00:40:24.355Z,0
2017-09-07T00:41:04.806Z,0
2017-09-07T00:41:45.256Z,0
2017-09-07T00:42:25.713Z,0
2017-09-07T00:43:06.314Z,0
2017-09-07T00:43:46.764Z,0
2017-09-07T00:44:27.219Z,0
2017-09-07T00:45:07.709Z,0
2017-09-07T00:45:48.184Z,0
2017-09-07T00:46:28.635Z,0
2017-09-07T00:47:09.088Z,0
2017-09-07T00:47:49.526Z,0
2017-09-07T00:48:29.982Z,0
2017-09-07T00:49:10.437Z,0
2017-09-07T00:49:50.874Z,0
2017-09-07T00:50:31.326Z,0
2017-09-07T00:51:11.776Z,0
2017-09-07T00:51:52.232Z,0
2017-09-07T00:52:32.693Z,0
2017-09-07T00:53:13.147Z,0
2017-09-07T00:53:53.598Z,0
2017-09-07T00:54:34.058Z,0
2017-09-07T00:55:14.492Z,0
2017-09-07T00:55:54.954Z,0
2017-09-07T00:56:35.390Z,0
2017-09-07T00:57:15.832Z,0
2017-09-07T00:57:56.284Z,0
2017-09-07T00:58:36.734Z,0
2017-09-07T00:59:17.186Z,0
2017-09-07T00:59:57.628Z,0
2017-09-07T01:00:38.088Z,0
2017-09-07T01:01:18.545Z,0
2017-09-07T01:01:59.015Z,0
2017-09-07T01:02:39.466Z,0
2017-09-07T01:03:19.914Z,0
2017-09-07T01:04:00.368Z,0
2017-09-07T01:04:40.847Z,0
2017-09-07T01:05:21.294Z,0
2017-09-07T01:06:01.749Z,0
2017-09-07T01:06:42.207Z,0
2017-09-07T01:07:22.659Z,0
2017-09-07T01:08:03.139Z,0
2017-09-07T01:08:43.571Z,0
2017-09-07T01:09:24.026Z,0
2017-09-07T01:10:04.476Z,0
2017-09-07T01:10:44.926Z,0
2017-09-07T01:11:25.380Z,0
2017-09-07T01:12:05.836Z,0
2017-09-07T01:12:46.296Z,0
2017-09-07T01:13:26.752Z,0
2017-09-07T01:14:07.204Z,0
2017-09-07T01:14:47.662Z,0
2017-09-07T01:15:28.125Z,0
2017-09-07T01:16:08.611Z,0
2017-09-07T01:16:49.068Z,0
2017-09-07T01:17:29.528Z,0
2017-09-07T01:18:09.982Z,0
2017-09-07T01:18:50.438Z,0
2017-09-07T01:19:30.907Z,0
2017-09-07T01:20:11.352Z,0
2017-09-07T01:20:51.802Z,0
2017-09-07T01:21:32.251Z,0
2017-09-07T01:22:12.706Z,0
2017-09-07T01:22:53.152Z,0
2017-09-07T01:23:33.601Z,0
2017-09-07T01:24:14.043Z,0
2017-09-07T01:24:54.504Z,0
2017-09-07T01:25:34.954Z,0
2017-09-07T01:26:15.426Z,0
2017-09-07T01:26:55.870Z,0
2017-09-07T01:27:36.326Z,0
2017-09-07T01:28:16.780Z,0
2017-09-07T01:28:57.224Z,0
2017-09-07T01:29:37.677Z,0
2017-09-07T01:30:18.125Z,0
2017-09-07T01:30:58.568Z,0
2017-09-07T01:31:39.025Z,0
2017-09-07T01:32:19.470Z,0
2017-09-07T01:32:59.932Z,0
2017-09-07T01:33:40.483Z,0
2017-09-07T01:34:20.939Z,0
2017-09-07T01:35:01.393Z,0
2017-09-07T01:35:41.855Z,0
2017-09-07T01:37:59.905Z,0
2017-09-07T01:38:40.356Z,0
2017-09-07T01:39:20.803Z,0
2017-09-07T01:40:01.258Z,0
2017-09-07T01:40:41.715Z,0
2017-09-07T01:41:22.159Z,0
2017-09-07T01:42:02.611Z,0
2017-09-07T01:42:43.070Z,0
2017-09-07T01:43:23.516Z,0
2017-09-07T01:44:03.957Z,0
2017-09-07T01:44:44.420Z,0
2017-09-07T01:45:24.867Z,0
2017-09-07T01:46:05.312Z,0
2017-09-07T01:46:45.761Z,0
2017-09-07T01:47:26.218Z,0
2017-09-07T01:48:06.673Z,0
2017-09-07T01:48:47.145Z,0
2017-09-07T01:49:27.602Z,0
2017-09-07T01:50:08.061Z,0
2017-09-07T01:50:48.515Z,0
2017-09-07T01:51:28.977Z,0
2017-09-07T01:52:09.429Z,0
2017-09-07T01:52:49.879Z,0
2017-09-07T01:53:30.330Z,0
2017-09-07T01:54:10.795Z,0
2017-09-07T01:54:51.241Z,0
2017-09-07T01:55:31.692Z,0
2017-09-07T01:56:12.154Z,0
2017-09-07T01:56:52.613Z,0
2017-09-07T01:57:33.062Z,0
2017-09-07T01:58:13.532Z,0
2017-09-07T01:58:53.978Z,0
2017-09-07T01:59:34.429Z,0
2017-09-07T02:00:14.881Z,0
2017-09-07T02:00:55.340Z,0
2017-09-07T02:01:35.800Z,0
2017-09-07T02:02:16.291Z,0
2017-09-07T02:02:56.749Z,0
2017-09-07T02:03:37.212Z,0
2017-09-07T02:04:17.674Z,0
2017-09-07T02:04:58.134Z,0
2017-09-07T02:05:38.596Z,0
2017-09-07T02:06:19.039Z,0
2017-09-07T02:06:59.502Z,0
2017-09-07T02:07:39.969Z,0
2017-09-07T02:08:20.418Z,0
2017-09-07T02:09:00.877Z,0
2017-09-07T02:09:41.323Z,0
2017-09-07T02:10:21.781Z,0
2017-09-07T02:11:02.241Z,0
2017-09-07T02:11:42.687Z,0
2017-09-07T02:12:23.142Z,0
2017-09-07T02:13:03.596Z,0
2017-09-07T02:13:44.046Z,0
2017-09-07T02:14:24.498Z,0
2017-09-07T02:15:04.954Z,0
2017-09-07T02:15:45.416Z,0
2017-09-07T02:16:25.872Z,0
2017-09-07T02:17:06.325Z,0
2017-09-07T02:17:46.783Z,0
2017-09-07T02:18:27.240Z,0
2017-09-07T02:19:07.698Z,0
2017-09-07T02:19:48.158Z,0
2017-09-07T02:20:28.645Z,0
2017-09-07T02:21:09.078Z,0
2017-09-07T02:21:49.529Z,0
2017-09-07T02:22:29.996Z,0
2017-09-07T02:23:10.451Z,0
2017-09-07T02:23:50.903Z,0
2017-09-07T02:24:31.366Z,0
2017-09-07T02:25:11.822Z,0
2017-09-07T02:25:52.278Z,0
2017-09-07T02:26:32.736Z,0
2017-09-07T02:27:13.194Z,0
2017-09-07T02:27:53.648Z,0
2017-09-07T02:28:34.101Z,0
2017-09-07T02:29:14.556Z,0
2017-09-07T02:29:55.014Z,0
2017-09-07T02:30:35.469Z,0
2017-09-07T02:31:15.930Z,0
2017-09-07T02:31:56.380Z,0
2017-09-07T02:32:36.829Z,0
2017-09-07T02:33:17.284Z,0
2017-09-07T02:33:57.742Z,0
2017-09-07T02:34:38.188Z,0
2017-09-07T02:35:18.638Z,0
2017-09-07T02:35:59.099Z,0
2017-09-07T02:36:39.555Z,0
2017-09-07T02:37:20.007Z,0
2017-09-07T02:38:00.462Z,0
2017-09-07T02:38:40.915Z,0
2017-09-07T02:39:21.375Z,0
2017-09-07T02:40:01.827Z,0
2017-09-07T02:40:42.288Z,0
2017-09-07T02:41:22.735Z,0
2017-09-07T02:42:03.188Z,0
2017-09-07T02:42:43.643Z,0
2017-09-07T02:43:24.097Z,0
2017-09-07T02:44:04.542Z,0
2017-09-07T02:44:45.006Z,0
2017-09-07T02:45:25.457Z,0
2017-09-07T02:46:05.986Z,0
2017-09-07T02:48:18.766Z,0
2017-09-07T02:48:59.215Z,0
2017-09-07T02:49:39.671Z,0
2017-09-07T02:50:20.119Z,0
2017-09-07T02:51:00.596Z,0
2017-09-07T02:51:41.014Z,0
2017-09-07T02:52:21.474Z,0
2017-09-07T02:53:01.916Z,0
2017-09-07T02:53:42.366Z,0
2017-09-07T02:54:22.817Z,0
2017-09-07T02:55:03.270Z,0
2017-09-07T02:55:43.719Z,0
2017-09-07T02:56:24.252Z,0
2017-09-07T02:57:04.705Z,0
2017-09-07T02:57:45.192Z,0
2017-09-07T02:58:25.639Z,0
2017-09-07T02:59:06.090Z,0
2017-09-07T02:59:46.530Z,0
2017-09-07T03:00:27.031Z,0
2017-09-07T03:01:07.485Z,0
2017-09-07T03:01:47.934Z,0
2017-09-07T03:02:28.396Z,0
2017-09-07T03:03:08.854Z,0
2017-09-07T03:03:49.307Z,0
2017-09-07T03:04:29.762Z,0
2017-09-07T03:05:10.244Z,0
2017-09-07T03:05:50.672Z,0
2017-09-07T03:06:31.131Z,0
2017-09-07T03:07:11.583Z,0
2017-09-07T03:07:52.036Z,0
2017-09-07T03:08:32.494Z,0
2017-09-07T03:09:12.942Z,0
2017-09-07T03:09:53.400Z,0
2017-09-07T03:10:33.847Z,0
2017-09-07T03:11:14.308Z,0
2017-09-07T03:11:54.759Z,0
2017-09-07T03:12:35.208Z,0
2017-09-07T03:13:15.660Z,0
2017-09-07T03:13:56.133Z,0
2017-09-07T03:14:36.582Z,0
2017-09-07T03:15:17.020Z,0
2017-09-07T03:15:57.478Z,0
2017-09-07T03:16:37.930Z,0
2017-09-07T03:17:18.382Z,0
2017-09-07T03:17:58.844Z,0
2017-09-07T03:18:39.297Z,0
2017-09-07T03:19:19.746Z,0
2017-09-07T03:20:00.201Z,0
2017-09-07T03:20:40.652Z,0
2017-09-07T03:21:21.108Z,0
2017-09-07T03:22:01.617Z,0
2017-09-07T03:22:42.064Z,0
2017-09-07T03:23:22.513Z,0
2017-09-07T03:24:02.966Z,0
2017-09-07T03:24:43.422Z,0
2017-09-07T03:25:23.878Z,0
2017-09-07T03:26:04.333Z,0
2017-09-07T03:26:44.791Z,0
2017-09-07T03:27:25.243Z,0
2017-09-07T03:28:05.696Z,0
2017-09-07T03:28:46.152Z,0
2017-09-07T03:29:26.612Z,0
2017-09-07T03:30:07.068Z,0
2017-09-07T03:30:47.522Z,0
2017-09-07T03:31:27.975Z,0
2017-09-07T03:32:08.424Z,0
2017-09-07T03:32:48.902Z,0
2017-09-07T03:33:29.361Z,0
2017-09-07T03:36:02.513Z,0
2017-09-07T03:36:42.976Z,0
2017-09-07T03:37:23.431Z,0
2017-09-07T03:38:03.875Z,0
2017-09-07T03:38:44.331Z,0
2017-09-07T03:39:24.864Z,0
2017-09-07T03:40:05.335Z,0
2017-09-07T03:40:45.768Z,0
2017-09-07T03:41:26.206Z,0
2017-09-07T03:42:06.716Z,0
2017-09-07T03:42:47.165Z,0
2017-09-07T03:43:27.621Z,0
2017-09-07T03:44:08.073Z,0
2017-09-07T03:44:48.513Z,0
2017-09-07T03:45:28.977Z,0
2017-09-07T03:46:09.429Z,0
2017-09-07T03:46:49.882Z,0
2017-09-07T03:47:30.334Z,0
2017-09-07T03:48:10.780Z,0
2017-09-07T03:48:51.246Z,0
2017-09-07T03:49:31.702Z,0
2017-09-07T03:50:12.160Z,0
2017-09-07T03:50:52.617Z,0
2017-09-07T03:51:33.099Z,0
2017-09-07T03:52:13.528Z,0
2017-09-07T03:52:53.990Z,0
2017-09-07T03:53:34.445Z,0
2017-09-07T03:54:14.902Z,0
2017-09-07T03:54:55.357Z,0
2017-09-07T03:55:35.811Z,0
2017-09-07T03:56:16.275Z,0
2017-09-07T03:56:56.726Z,0
2017-09-07T03:57:37.179Z,0
2017-09-07T03:58:17.632Z,0
2017-09-07T03:58:58.085Z,0
2017-09-07T03:59:38.535Z,0
2017-09-07T04:00:18.990Z,0
2017-09-07T04:00:59.446Z,0
2017-09-07T04:01:39.895Z,0
2017-09-07T04:02:20.345Z,0
2017-09-07T04:03:00.807Z,0
2017-09-07T04:03:41.281Z,0
2017-09-07T04:04:21.736Z,0
2017-09-07T04:05:02.189Z,0
2017-09-07T04:05:42.654Z,0
2017-09-07T04:06:23.110Z,0
2017-09-07T04:07:03.571Z,0
2017-09-07T04:07:44.017Z,0
2017-09-07T04:08:24.464Z,0
2017-09-07T04:09:04.898Z,0
2017-09-07T04:09:45.352Z,0
2017-09-07T04:10:25.814Z,0
2017-09-07T04:11:06.266Z,0
2017-09-07T04:11:46.724Z,0
2017-09-07T04:12:27.184Z,0
2017-09-07T04:13:07.733Z,0
2017-09-07T04:13:48.187Z,0
2017-09-07T04:14:28.647Z,0
2017-09-07T04:15:09.073Z,0
2017-09-07T04:15:49.516Z,0
2017-09-07T04:16:29.974Z,0
2017-09-07T04:17:10.433Z,0
2017-09-07T04:17:50.896Z,0
2017-09-07T04:18:31.352Z,0
2017-09-07T04:19:11.804Z,0
2017-09-07T04:19:52.255Z,0
2017-09-07T04:20:32.781Z,0
2017-09-07T04:21:13.264Z,0
2017-09-07T04:21:53.721Z,0
2017-09-07T04:22:34.182Z,0
2017-09-07T04:23:14.638Z,0
2017-09-07T04:23:55.084Z,0
2017-09-07T04:24:35.536Z,0
2017-09-07T04:25:15.995Z,0
2017-09-07T04:25:56.448Z,0
2017-09-07T04:26:36.905Z,0
2017-09-07T04:27:17.357Z,0
2017-09-07T04:27:57.832Z,0
2017-09-07T04:28:38.272Z,0
2017-09-07T04:29:18.725Z,0
2017-09-07T04:29:59.177Z,0
2017-09-07T04:30:39.631Z,0
2017-09-07T04:31:20.109Z,0
2017-09-07T04:32:00.567Z,0
2017-09-07T04:32:41.035Z,0
2017-09-07T04:33:21.483Z,0
2017-09-07T04:34:01.940Z,0
2017-09-07T04:34:42.401Z,0
2017-09-07T04:35:22.864Z,0
2017-09-07T04:36:03.317Z,0
2017-09-07T04:36:43.778Z,0
2017-09-07T04:37:24.235Z,0
2017-09-07T04:38:04.680Z,0
2017-09-07T04:38:45.132Z,0
2017-09-07T04:39:25.590Z,0
2017-09-07T04:40:06.194Z,0
2017-09-07T04:40:46.650Z,0
2017-09-07T04:41:27.106Z,0
2017-09-07T04:42:07.564Z,0
2017-09-07T04:42:48.023Z,4
2017-09-07T04:43:28.474Z,4
2017-09-07T04:44:08.947Z,4
2017-09-07T04:44:49.407Z,4
2017-09-07T04:45:29.859Z,4
2017-09-07T04:46:10.312Z,4
2017-09-07T04:46:50.771Z,4
2017-09-07T04:47:31.235Z,0
2017-09-07T04:48:11.688Z,0
2017-09-07T04:48:52.143Z,4
2017-09-07T04:51:10.040Z,4
2017-09-07T04:51:50.499Z,4
2017-09-07T04:52:30.957Z,4
2017-09-07T04:53:11.413Z,8
2017-09-07T04:53:51.872Z,8
2017-09-07T04:54:32.324Z,4
2017-09-07T04:55:12.778Z,4
2017-09-07T04:55:53.249Z,4
2017-09-07T04:56:33.692Z,8
2017-09-07T04:59:06.790Z,8
2017-09-07T04:59:47.248Z,8
2017-09-07T05:00:27.708Z,12
2017-09-07T05:01:08.220Z,8
2017-09-07T05:01:48.705Z,12
2017-09-07T05:02:29.126Z,8
2017-09-07T05:03:09.608Z,12
2017-09-07T05:03:50.060Z,12
2017-09-07T05:04:30.518Z,12
2017-09-07T05:05:10.967Z,12
2017-09-07T05:05:51.419Z,12
2017-09-07T05:06:31.869Z,12
2017-09-07T05:07:12.324Z,16
2017-09-07T05:07:52.779Z,16
2017-09-07T05:08:33.248Z,16
2017-09-07T05:09:13.672Z,16
2017-09-07T05:09:54.110Z,16
2017-09-07T05:10:34.555Z,20
2017-09-07T05:11:15.012Z,16
2017-09-07T05:11:55.467Z,20
2017-09-07T05:12:35.920Z,20
2017-09-07T05:13:16.369Z,20
2017-09-07T05:13:56.832Z,20
2017-09-07T05:14:37.268Z,24
2017-09-07T05:15:17.718Z,20
2017-09-07T05:15:58.169Z,20
2017-09-07T05:16:38.726Z,24
2017-09-07T05:17:19.176Z,24
2017-09-07T05:17:59.638Z,24
2017-09-07T05:18:40.155Z,24
2017-09-07T05:19:20.609Z,24
2017-09-07T05:20:01.071Z,28
2017-09-07T05:20:41.575Z,28
2017-09-07T05:21:22.020Z,28
2017-09-07T05:22:02.486Z,28
2017-09-07T05:22:42.939Z,28
2017-09-07T05:23:23.382Z,32
2017-09-07T05:24:03.839Z,32
2017-09-07T05:24:44.287Z,32
2017-09-07T05:25:24.733Z,36
2017-09-07T05:26:05.183Z,32
2017-09-07T05:26:45.632Z,36
2017-09-07T05:27:26.078Z,36
2017-09-07T05:28:06.534Z,32
2017-09-07T05:28:46.989Z,36
2017-09-07T05:29:27.435Z,36
2017-09-07T05:30:07.891Z,40
2017-09-07T05:30:48.354Z,36
2017-09-07T05:31:28.797Z,40
2017-09-07T05:32:09.254Z,36
2017-09-07T05:32:49.713Z,40
2017-09-07T05:33:30.166Z,40
2017-09-07T05:34:10.623Z,44
2017-09-07T05:34:51.164Z,40
2017-09-07T05:35:31.617Z,44
2017-09-07T05:36:12.045Z,44
2017-09-07T05:36:52.494Z,44
2017-09-07T05:37:32.944Z,48
2017-09-07T05:38:13.396Z,48
2017-09-07T05:38:53.851Z,48
2017-09-07T05:39:34.308Z,48
2017-09-07T05:40:14.760Z,52
2017-09-07T05:40:55.215Z,52
2017-09-07T05:41:35.670Z,56
2017-09-07T05:42:16.135Z,56
2017-09-07T05:42:56.584Z,56
2017-09-07T05:43:37.038Z,56
2017-09-07T05:44:17.487Z,60
2017-09-07T05:44:57.946Z,56
2017-09-07T05:45:38.389Z,60
2017-09-07T05:46:18.852Z,60
2017-09-07T05:46:59.306Z,60
2017-09-07T05:47:39.756Z,60
2017-09-07T05:48:20.207Z,64
2017-09-07T05:49:00.728Z,64
2017-09-07T05:49:41.198Z,64
2017-09-07T05:50:21.648Z,64
2017-09-07T05:51:02.108Z,64
2017-09-07T05:51:42.576Z,68
2017-09-07T05:52:23.029Z,68
2017-09-07T05:53:03.484Z,72
2017-09-07T05:53:43.933Z,72
2017-09-07T05:54:24.390Z,76
2017-09-07T05:55:04.840Z,72
2017-09-07T05:55:45.302Z,76
2017-09-07T05:56:25.747Z,76
2017-09-07T05:57:06.210Z,80
2017-09-07T05:57:46.649Z,80
2017-09-07T05:58:27.108Z,80
2017-09-07T05:59:07.559Z,84
2017-09-07T05:59:48.004Z,84
2017-09-07T06:00:28.459Z,84
2017-09-07T06:01:08.988Z,88
2017-09-07T06:01:49.428Z,88
2017-09-07T06:02:29.882Z,88
2017-09-07T06:03:10.374Z,92
2017-09-07T06:03:50.828Z,88
2017-09-07T06:04:31.283Z,92
2017-09-07T06:05:11.736Z,92
2017-09-07T06:05:52.202Z,92
2017-09-07T06:06:32.650Z,96
2017-09-07T06:07:13.102Z,96
2017-09-07T06:07:53.553Z,96
2017-09-07T06:08:34.005Z,100
2017-09-07T06:09:14.465Z,104
2017-09-07T06:09:54.923Z,104
2017-09-07T06:10:35.375Z,104
2017-09-07T06:11:15.823Z,108
2017-09-07T06:11:56.277Z,108
2017-09-07T06:12:36.725Z,112
2017-09-07T06:13:17.179Z,112
2017-09-07T06:13:57.638Z,116
2017-09-07T06:14:38.099Z,116
2017-09-07T06:15:18.561Z,120
2017-09-07T06:15:59.011Z,120
2017-09-07T06:16:39.473Z,124
2017-09-07T06:17:19.931Z,124
2017-09-07T06:18:00.462Z,124
2017-09-07T06:18:40.924Z,128
2017-09-07T06:19:21.374Z,132
2017-09-07T06:20:01.851Z,132
2017-09-07T06:20:42.304Z,132
2017-09-07T06:21:22.754Z,136
2017-09-07T06:22:03.205Z,136
2017-09-07T06:22:43.662Z,140
2017-09-07T06:23:24.121Z,144
2017-09-07T06:24:04.584Z,144
2017-09-07T06:24:45.041Z,144
2017-09-07T06:25:25.494Z,152
2017-09-07T06:26:05.949Z,156
2017-09-07T06:26:46.408Z,156
2017-09-07T06:27:26.854Z,160
2017-09-07T06:28:07.302Z,160
2017-09-07T06:28:47.785Z,164
2017-09-07T06:29:28.239Z,164
2017-09-07T06:30:08.699Z,164
2017-09-07T06:30:49.163Z,168
2017-09-07T06:31:29.641Z,168
2017-09-07T06:32:10.095Z,172
2017-09-07T06:32:50.544Z,176
2017-09-07T06:33:30.994Z,176
2017-09-07T06:34:11.431Z,180
2017-09-07T06:34:51.887Z,184
2017-09-07T06:35:32.338Z,188
2017-09-07T06:36:12.793Z,192
2017-09-07T06:36:53.249Z,196
2017-09-07T06:37:33.697Z,200
2017-09-07T06:38:14.148Z,204
2017-09-07T06:38:54.594Z,208
2017-09-07T06:39:35.042Z,208
2017-09-07T06:40:15.508Z,216
2017-09-07T06:40:55.964Z,220
2017-09-07T06:41:36.447Z,224
2017-09-07T06:42:16.912Z,228
2017-09-07T06:42:57.369Z,236
2017-09-07T06:43:37.829Z,240
2017-09-07T06:44:18.279Z,248
2017-09-07T06:44:58.730Z,252
2017-09-07T06:45:39.162Z,256
2017-09-07T06:46:19.618Z,260
2017-09-07T06:47:00.072Z,268
2017-09-07T06:47:40.519Z,268
2017-09-07T06:48:20.965Z,276
2017-09-07T06:49:01.419Z,280
2017-09-07T06:49:41.863Z,284
2017-09-07T06:50:22.311Z,292
2017-09-07T06:51:02.760Z,300
2017-09-07T06:51:43.225Z,308
2017-09-07T06:52:23.778Z,312
2017-09-07T06:53:04.262Z,316
2017-09-07T06:53:44.693Z,324
2017-09-07T06:54:25.144Z,328
2017-09-07T06:55:05.602Z,340
2017-09-07T06:55:46.051Z,348
2017-09-07T06:56:26.504Z,360
2017-09-07T06:57:06.957Z,376
2017-09-07T06:57:47.447Z,388
2017-09-07T06:58:27.905Z,404
2017-09-07T06:59:08.313Z,416
2017-09-07T06:59:48.772Z,432
2017-09-07T07:00:29.221Z,444
2017-09-07T07:01:09.670Z,456
2017-09-07T07:01:50.134Z,468
2017-09-07T07:02:30.599Z,480
2017-09-07T07:03:11.053Z,496
2017-09-07T07:03:51.507Z,508
2017-09-07T07:04:31.954Z,520
2017-09-07T07:05:12.407Z,536
2017-09-07T07:05:52.851Z,540
2017-09-07T07:06:33.299Z,544
2017-09-07T07:07:13.755Z,548
2017-09-07T07:07:54.221Z,544
2017-09-07T07:08:34.674Z,548
2017-09-07T07:09:15.128Z,544
2017-09-07T07:09:55.583Z,548
2017-09-07T07:10:36.085Z,552
2017-09-07T07:11:16.535Z,556
2017-09-07T07:11:56.992Z,564
2017-09-07T07:12:37.466Z,564
2017-09-07T07:13:17.923Z,572
2017-09-07T07:13:58.373Z,580
2017-09-07T07:14:38.823Z,588
2017-09-07T07:15:19.315Z,600
2017-09-07T07:15:59.729Z,616
2017-09-07T07:16:40.183Z,624
2017-09-07T07:17:20.638Z,636
2017-09-07T07:18:01.090Z,648
2017-09-07T07:18:41.543Z,652
2017-09-07T07:19:21.992Z,660
2017-09-07T07:20:02.457Z,668
2017-09-07T07:20:42.894Z,676
2017-09-07T07:21:23.338Z,684
2017-09-07T07:22:03.791Z,692
2017-09-07T07:22:44.238Z,704
2017-09-07T07:23:24.689Z,712
2017-09-07T07:24:05.301Z,716
2017-09-07T07:26:02.988Z,736
2017-09-07T07:26:43.435Z,748
2017-09-07T07:27:23.928Z,760
2017-09-07T07:28:04.345Z,772
2017-09-07T07:28:44.799Z,780
2017-09-07T07:29:25.259Z,788
2017-09-07T07:30:05.754Z,796
2017-09-07T07:30:46.210Z,812
2017-09-07T07:31:26.657Z,836
2017-09-07T07:32:07.116Z,840
2017-09-07T07:32:47.571Z,856
2017-09-07T07:33:28.021Z,864
2017-09-07T07:34:08.475Z,872
2017-09-07T07:34:48.929Z,872
2017-09-07T07:35:29.394Z,872
2017-09-07T07:36:09.834Z,876
2017-09-07T07:36:50.294Z,880
2017-09-07T07:37:30.748Z,892
2017-09-07T07:38:11.209Z,908
2017-09-07T07:38:51.660Z,924
2017-09-07T07:39:32.105Z,940
2017-09-07T07:40:12.588Z,960
2017-09-07T07:40:53.027Z,972
2017-09-07T07:41:33.486Z,988
2017-09-07T07:42:13.936Z,1004
2017-09-07T07:42:54.388Z,1016
2017-09-07T07:43:34.840Z,1016
2017-09-07T07:44:15.308Z,1020
2017-09-07T07:44:55.749Z,1016
2017-09-07T07:45:36.207Z,1004
2017-09-07T07:46:16.692Z,992
2017-09-07T07:46:57.135Z,992
2017-09-07T07:47:37.580Z,1000
2017-09-07T07:48:18.033Z,1020
2017-09-07T07:48:58.491Z,1044
2017-09-07T07:49:38.938Z,1072
2017-09-07T07:50:19.462Z,1096
2017-09-07T07:50:59.927Z,1120
2017-09-07T07:51:40.380Z,1152
2017-09-07T07:52:20.840Z,1180
2017-09-07T07:53:01.299Z,1204
2017-09-07T07:53:41.753Z,1232
2017-09-07T07:54:22.210Z,1252
2017-09-07T07:55:02.662Z,1276
2017-09-07T07:55:43.111Z,1308
2017-09-07T07:56:23.569Z,1356
2017-09-07T07:57:04.023Z,1360
2017-09-07T07:57:44.474Z,1332
2017-09-07T07:58:24.932Z,1308
2017-09-07T07:59:05.388Z,1272
2017-09-07T07:59:45.847Z,1232
2017-09-07T08:00:26.304Z,1192
2017-09-07T08:01:06.760Z,1168
2017-09-07T08:01:47.211Z,1144
2017-09-07T08:02:27.663Z,1116
2017-09-07T08:03:08.158Z,1072
2017-09-07T08:03:48.573Z,1032
2017-09-07T08:04:29.028Z,1004
2017-09-07T08:05:09.475Z,988
2017-09-07T08:05:49.929Z,976
2017-09-07T08:06:30.380Z,964
2017-09-07T08:07:10.838Z,956
2017-09-07T08:07:51.286Z,948
2017-09-07T08:08:31.750Z,940
2017-09-07T08:09:12.198Z,940
2017-09-07T08:09:52.650Z,932
2017-09-07T08:10:33.102Z,928
2017-09-07T08:11:13.558Z,936
2017-09-07T08:11:54.015Z,944
2017-09-07T08:12:34.464Z,960
2017-09-07T08:13:14.917Z,984
2017-09-07T08:13:55.372Z,1012
2017-09-07T08:14:35.827Z,1040
2017-09-07T08:15:16.321Z,1076
2017-09-07T08:15:56.782Z,1104
2017-09-07T08:16:37.241Z,1136
2017-09-07T08:17:17.685Z,1172
2017-09-07T08:17:58.135Z,1216
2017-09-07T08:18:38.584Z,1260
2017-09-07T08:19:19.120Z,1324
2017-09-07T08:19:59.570Z,1400
2017-09-07T08:20:40.028Z,1484
2017-09-07T08:21:20.545Z,1576
2017-09-07T08:22:01.003Z,1644
2017-09-07T08:22:41.451Z,1688
2017-09-07T08:23:21.947Z,1756
2017-09-07T08:24:02.401Z,1800
2017-09-07T08:24:42.855Z,1868
2017-09-07T08:25:23.312Z,2060
2017-09-07T08:26:03.766Z,2324
2017-09-07T08:26:44.222Z,2144
2017-09-07T08:27:24.666Z,1988
2017-09-07T08:28:05.119Z,1928
2017-09-07T08:28:45.582Z,1940
2017-09-07T08:29:26.028Z,1920
2017-09-07T08:30:06.481Z,1872
2017-09-07T08:30:46.944Z,1896
2017-09-07T08:31:27.389Z,1944
2017-09-07T08:32:07.866Z,1948
2017-09-07T08:32:48.311Z,1968
2017-09-07T08:33:28.764Z,2012
2017-09-07T08:34:09.257Z,2064
2017-09-07T08:34:49.648Z,2100
2017-09-07T08:35:30.104Z,2128
2017-09-07T08:36:10.549Z,2084
2017-09-07T08:36:51.006Z,2052
2017-09-07T08:37:31.459Z,2016
2017-09-07T08:38:11.904Z,2004
2017-09-07T08:38:52.352Z,1988
2017-09-07T08:39:32.817Z,1988
2017-09-07T08:40:13.274Z,2004
2017-09-07T08:40:53.725Z,2052
2017-09-07T08:41:34.183Z,1984
2017-09-07T08:42:14.641Z,2008
2017-09-07T08:42:55.102Z,2052
2017-09-07T08:43:35.557Z,2052
2017-09-07T08:44:16.008Z,2060
2017-09-07T08:44:56.469Z,2072
2017-09-07T08:45:36.924Z,2108
2017-09-07T08:46:17.389Z,2148
2017-09-07T08:46:57.842Z,2152
2017-09-07T08:47:38.289Z,2152
2017-09-07T08:48:18.746Z,2172
2017-09-07T08:48:59.198Z,2168
2017-09-07T08:49:39.652Z,2168
2017-09-07T08:50:20.103Z,2172
2017-09-07T08:51:00.561Z,2188
2017-09-07T08:51:41.010Z,2296
2017-09-07T08:52:21.461Z,2320
2017-09-07T08:53:01.917Z,2324
2017-09-07T08:55:31.302Z,1792
2017-09-07T08:56:11.760Z,1732
2017-09-07T08:56:52.204Z,1732
2017-09-07T08:57:32.667Z,1756
2017-09-07T08:58:13.127Z,1564
2017-09-07T08:58:53.575Z,1420
2017-09-07T08:59:34.016Z,1388
2017-09-07T09:00:14.464Z,1440
2017-09-07T09:00:54.910Z,1484
2017-09-07T09:01:35.364Z,1524
2017-09-07T09:02:15.878Z,1544
2017-09-07T09:02:56.333Z,1544
2017-09-07T09:03:36.766Z,1536
2017-09-07T09:04:17.214Z,1576
2017-09-07T09:04:57.663Z,1624
2017-09-07T09:05:38.115Z,1652
2017-09-07T09:06:18.543Z,1716
2017-09-07T09:06:58.989Z,1728
2017-09-07T09:07:39.447Z,1808
2017-09-07T09:08:19.874Z,1876
2017-09-07T09:09:00.332Z,1944
2017-09-07T09:09:40.781Z,1940
2017-09-07T09:10:21.301Z,1916
2017-09-07T09:11:01.779Z,1920
2017-09-07T09:11:42.224Z,1992
2017-09-07T09:12:22.680Z,2124
2017-09-07T09:13:03.147Z,2192
2017-09-07T09:13:43.591Z,2088
2017-09-07T09:14:24.038Z,2100
2017-09-07T09:15:04.501Z,2208
2017-09-07T09:15:44.961Z,2248
2017-09-07T09:16:25.420Z,2436
2017-09-07T09:17:05.978Z,2792
2017-09-07T09:17:46.446Z,2628
2017-09-07T09:18:26.903Z,2816
2017-09-07T09:19:07.369Z,3116
2017-09-07T09:19:47.833Z,3464
2017-09-07T09:20:28.313Z,4148
2017-09-07T09:21:08.748Z,5432
2017-09-07T09:21:49.208Z,3796
2017-09-07T09:22:29.649Z,2928
2017-09-07T09:23:10.110Z,2936
2017-09-07T09:23:50.568Z,2464
2017-09-07T09:24:31.022Z,2556
2017-09-07T09:25:11.498Z,2444
2017-09-07T09:25:51.957Z,2688
2017-09-07T09:26:32.415Z,2824
2017-09-07T09:27:12.870Z,2448
2017-09-07T09:27:53.349Z,2564
2017-09-07T09:28:33.816Z,2432
2017-09-07T09:29:14.273Z,2504
2017-09-07T09:29:54.721Z,2340
2017-09-07T09:30:35.161Z,2112
2017-09-07T09:31:15.657Z,2120
2017-09-07T09:31:56.113Z,1940
2017-09-07T09:32:36.580Z,2116
2017-09-07T09:33:17.035Z,2176
2017-09-07T09:33:57.486Z,1816
2017-09-07T09:34:37.941Z,2276
2017-09-07T09:35:18.394Z,2028
2017-09-07T09:35:58.854Z,1984
2017-09-07T09:36:39.313Z,2036
2017-09-07T09:37:19.818Z,3152
2017-09-07T09:38:00.257Z,3604
2017-09-07T09:38:40.701Z,3156
2017-09-07T09:39:21.188Z,2128
2017-09-07T09:40:01.640Z,2040
2017-09-07T09:40:42.104Z,2448
2017-09-07T09:41:22.554Z,3900
2017-09-07T09:42:03.012Z,4876
2017-09-07T09:42:43.466Z,2412
2017-09-07T09:43:23.926Z,3536
2017-09-07T09:44:04.378Z,5308
2017-09-07T09:46:17.176Z,5308
2017-09-07T09:46:57.640Z,2200
2017-09-07T09:47:38.084Z,2276
2017-09-07T09:48:18.536Z,2144
2017-09-07T09:48:58.991Z,2196